sensor_id;sensor_type;location;lat;lon;timestamp;P1;durP1;ratioP1;P2;durP2;ratioP2
23434;SDS011;11890;45.380;11.028;2023-02-04T00:00:26;152.52;;;65.60;;
23434;SDS011;11890;45.380;11.028;2023-02-04T00:02:55;141.35;;;64.13;;
23434;SDS011;11890;45.380;11.028;2023-02-04T00:05:23;153.02;;;66.78;;
23434;SDS011;11890;45.380;11.028;2023-02-04T00:07:51;155.10;;;68.55;;
23434;SDS011;11890;45.380;11.028;2023-02-04T00:10:19;154.43;;;65.60;;
23434;SDS011;11890;45.380;11.028;2023-02-04T00:12:47;161.98;;;68.30;;
23434;SDS011;11890;45.380;11.028;2023-02-04T00:15:15;156.18;;;68.30;;
23434;SDS011;11890;45.380;11.028;2023-02-04T00:17:43;147.48;;;66.88;;
23434;SDS011;11890;45.380;11.028;2023-02-04T00:20:10;152.95;;;65.05;;
23434;SDS011;11890;45.380;11.028;2023-02-04T00:22:39;149.00;;;65.80;;
23434;SDS011;11890;45.380;11.028;2023-02-04T00:25:06;147.02;;;64.50;;
23434;SDS011;11890;45.380;11.028;2023-02-04T00:27:34;157.68;;;67.65;;
23434;SDS011;11890;45.380;11.028;2023-02-04T00:30:06;148.55;;;63.83;;
23434;SDS011;11890;45.380;11.028;2023-02-04T00:32:34;149.93;;;66.30;;
23434;SDS011;11890;45.380;11.028;2023-02-04T00:35:02;145.80;;;63.20;;
23434;SDS011;11890;45.380;11.028;2023-02-04T00:37:31;154.25;;;64.47;;
23434;SDS011;11890;45.380;11.028;2023-02-04T00:39:58;150.95;;;63.53;;
23434;SDS011;11890;45.380;11.028;2023-02-04T00:42:26;151.57;;;63.67;;
23434;SDS011;11890;45.380;11.028;2023-02-04T00:44:57;140.15;;;62.25;;
23434;SDS011;11890;45.380;11.028;2023-02-04T00:47:25;140.57;;;62.33;;
23434;SDS011;11890;45.380;11.028;2023-02-04T00:49:55;148.73;;;63.13;;
23434;SDS011;11890;45.380;11.028;2023-02-04T00:52:23;155.57;;;65.05;;
23434;SDS011;11890;45.380;11.028;2023-02-04T00:54:50;149.48;;;63.45;;
23434;SDS011;11890;45.380;11.028;2023-02-04T00:57:18;151.55;;;66.70;;
23434;SDS011;11890;45.380;11.028;2023-02-04T00:59:47;144.18;;;62.75;;
23434;SDS011;11890;45.380;11.028;2023-02-04T01:02:16;149.15;;;65.57;;
23434;SDS011;11890;45.380;11.028;2023-02-04T01:04:44;155.63;;;64.50;;
23434;SDS011;11890;45.380;11.028;2023-02-04T01:07:12;153.77;;;67.70;;
23434;SDS011;11890;45.380;11.028;2023-02-04T01:09:40;158.77;;;66.18;;
23434;SDS011;11890;45.380;11.028;2023-02-04T01:12:08;158.90;;;66.93;;
23434;SDS011;11890;45.380;11.028;2023-02-04T01:14:36;153.23;;;65.07;;
23434;SDS011;11890;45.380;11.028;2023-02-04T01:17:04;153.85;;;64.07;;
23434;SDS011;11890;45.380;11.028;2023-02-04T01:19:32;155.93;;;68.03;;
23434;SDS011;11890;45.380;11.028;2023-02-04T01:22:00;152.52;;;64.22;;
23434;SDS011;11890;45.380;11.028;2023-02-04T01:24:28;154.65;;;65.63;;
23434;SDS011;11890;45.380;11.028;2023-02-04T01:27:14;156.43;;;66.88;;
23434;SDS011;11890;45.380;11.028;2023-02-04T01:29:42;153.70;;;65.22;;
23434;SDS011;11890;45.380;11.028;2023-02-04T01:32:09;155.40;;;65.18;;
23434;SDS011;11890;45.380;11.028;2023-02-04T01:34:37;151.57;;;64.78;;
23434;SDS011;11890;45.380;11.028;2023-02-04T01:37:05;143.75;;;62.80;;
23434;SDS011;11890;45.380;11.028;2023-02-04T01:39:33;144.70;;;63.40;;
23434;SDS011;11890;45.380;11.028;2023-02-04T01:42:02;144.98;;;63.53;;
23434;SDS011;11890;45.380;11.028;2023-02-04T01:44:30;143.52;;;60.45;;
23434;SDS011;11890;45.380;11.028;2023-02-04T01:46:58;150.32;;;63.65;;
23434;SDS011;11890;45.380;11.028;2023-02-04T01:49:26;147.88;;;62.92;;
23434;SDS011;11890;45.380;11.028;2023-02-04T01:51:55;143.20;;;62.63;;
23434;SDS011;11890;45.380;11.028;2023-02-04T01:54:23;150.85;;;60.92;;
23434;SDS011;11890;45.380;11.028;2023-02-04T01:56:52;158.02;;;62.60;;
23434;SDS011;11890;45.380;11.028;2023-02-04T01:59:22;151.68;;;64.18;;
23434;SDS011;11890;45.380;11.028;2023-02-04T02:01:50;137.43;;;64.03;;
23434;SDS011;11890;45.380;11.028;2023-02-04T02:04:28;147.00;;;62.38;;
23434;SDS011;11890;45.380;11.028;2023-02-04T02:07:01;149.20;;;62.60;;
23434;SDS011;11890;45.380;11.028;2023-02-04T02:09:30;153.90;;;62.80;;
23434;SDS011;11890;45.380;11.028;2023-02-04T02:11:59;155.25;;;62.67;;
23434;SDS011;11890;45.380;11.028;2023-02-04T02:14:28;150.90;;;66.20;;
23434;SDS011;11890;45.380;11.028;2023-02-04T02:16:56;151.23;;;61.80;;
23434;SDS011;11890;45.380;11.028;2023-02-04T02:19:28;149.30;;;62.30;;
23434;SDS011;11890;45.380;11.028;2023-02-04T02:22:04;149.27;;;62.60;;
23434;SDS011;11890;45.380;11.028;2023-02-04T02:24:34;153.75;;;66.13;;
23434;SDS011;11890;45.380;11.028;2023-02-04T02:27:04;149.65;;;62.40;;
23434;SDS011;11890;45.380;11.028;2023-02-04T02:29:34;145.25;;;62.05;;
23434;SDS011;11890;45.380;11.028;2023-02-04T02:32:03;157.77;;;65.43;;
23434;SDS011;11890;45.380;11.028;2023-02-04T02:34:31;142.38;;;62.08;;
23434;SDS011;11890;45.380;11.028;2023-02-04T02:37:01;138.75;;;61.72;;
23434;SDS011;11890;45.380;11.028;2023-02-04T02:39:29;138.65;;;60.55;;
23434;SDS011;11890;45.380;11.028;2023-02-04T02:41:58;145.18;;;63.42;;
23434;SDS011;11890;45.380;11.028;2023-02-04T02:44:26;147.38;;;61.97;;
23434;SDS011;11890;45.380;11.028;2023-02-04T02:46:56;144.25;;;62.72;;
23434;SDS011;11890;45.380;11.028;2023-02-04T02:49:24;151.85;;;62.85;;
23434;SDS011;11890;45.380;11.028;2023-02-04T02:51:52;139.85;;;61.67;;
23434;SDS011;11890;45.380;11.028;2023-02-04T02:54:24;151.18;;;64.97;;
23434;SDS011;11890;45.380;11.028;2023-02-04T02:56:56;149.85;;;63.58;;
23434;SDS011;11890;45.380;11.028;2023-02-04T02:59:24;148.88;;;63.25;;
23434;SDS011;11890;45.380;11.028;2023-02-04T03:01:57;150.77;;;63.72;;
23434;SDS011;11890;45.380;11.028;2023-02-04T03:04:28;154.63;;;64.05;;
23434;SDS011;11890;45.380;11.028;2023-02-04T03:06:57;148.77;;;61.75;;
23434;SDS011;11890;45.380;11.028;2023-02-04T03:09:25;144.10;;;64.18;;
23434;SDS011;11890;45.380;11.028;2023-02-04T03:11:54;152.80;;;64.15;;
23434;SDS011;11890;45.380;11.028;2023-02-04T03:14:21;155.00;;;66.47;;
23434;SDS011;11890;45.380;11.028;2023-02-04T03:16:51;143.60;;;61.72;;
23434;SDS011;11890;45.380;11.028;2023-02-04T03:19:20;141.18;;;61.90;;
23434;SDS011;11890;45.380;11.028;2023-02-04T03:21:48;142.43;;;62.08;;
23434;SDS011;11890;45.380;11.028;2023-02-04T03:24:16;151.20;;;62.70;;
23434;SDS011;11890;45.380;11.028;2023-02-04T03:26:44;154.00;;;64.28;;
23434;SDS011;11890;45.380;11.028;2023-02-04T03:29:13;155.20;;;64.82;;
23434;SDS011;11890;45.380;11.028;2023-02-04T03:31:41;136.85;;;62.53;;
23434;SDS011;11890;45.380;11.028;2023-02-04T03:34:09;151.15;;;62.08;;
23434;SDS011;11890;45.380;11.028;2023-02-04T03:36:37;147.50;;;64.43;;
23434;SDS011;11890;45.380;11.028;2023-02-04T03:39:04;153.60;;;63.05;;
23434;SDS011;11890;45.380;11.028;2023-02-04T03:41:32;150.00;;;63.25;;
23434;SDS011;11890;45.380;11.028;2023-02-04T03:44:00;151.23;;;63.97;;
23434;SDS011;11890;45.380;11.028;2023-02-04T03:46:28;139.80;;;61.97;;
23434;SDS011;11890;45.380;11.028;2023-02-04T03:48:56;138.75;;;62.13;;
23434;SDS011;11890;45.380;11.028;2023-02-04T03:51:24;143.93;;;62.63;;
23434;SDS011;11890;45.380;11.028;2023-02-04T03:53:52;139.93;;;62.30;;
23434;SDS011;11890;45.380;11.028;2023-02-04T03:56:20;148.75;;;62.17;;
23434;SDS011;11890;45.380;11.028;2023-02-04T03:58:47;146.27;;;60.33;;
23434;SDS011;11890;45.380;11.028;2023-02-04T04:01:15;138.90;;;62.13;;
23434;SDS011;11890;45.380;11.028;2023-02-04T04:03:43;150.20;;;60.70;;
23434;SDS011;11890;45.380;11.028;2023-02-04T04:06:11;141.55;;;61.78;;
23434;SDS011;11890;45.380;11.028;2023-02-04T04:08:39;139.55;;;61.70;;
23434;SDS011;11890;45.380;11.028;2023-02-04T04:11:07;141.25;;;59.58;;
23434;SDS011;11890;45.380;11.028;2023-02-04T04:13:35;148.23;;;62.20;;
23434;SDS011;11890;45.380;11.028;2023-02-04T04:16:03;138.57;;;61.13;;
23434;SDS011;11890;45.380;11.028;2023-02-04T04:18:31;149.10;;;65.13;;
23434;SDS011;11890;45.380;11.028;2023-02-04T04:20:59;147.27;;;62.50;;
23434;SDS011;11890;45.380;11.028;2023-02-04T04:23:27;146.05;;;60.42;;
23434;SDS011;11890;45.380;11.028;2023-02-04T04:25:55;139.57;;;59.47;;
23434;SDS011;11890;45.380;11.028;2023-02-04T04:28:22;144.18;;;59.08;;
23434;SDS011;11890;45.380;11.028;2023-02-04T04:30:50;147.30;;;60.13;;
23434;SDS011;11890;45.380;11.028;2023-02-04T04:33:18;139.93;;;59.33;;
23434;SDS011;11890;45.380;11.028;2023-02-04T04:35:46;151.73;;;63.25;;
23434;SDS011;11890;45.380;11.028;2023-02-04T04:38:14;133.13;;;58.17;;
23434;SDS011;11890;45.380;11.028;2023-02-04T04:40:42;140.07;;;60.03;;
23434;SDS011;11890;45.380;11.028;2023-02-04T04:43:09;128.95;;;58.97;;
23434;SDS011;11890;45.380;11.028;2023-02-04T04:45:37;143.30;;;61.55;;
23434;SDS011;11890;45.380;11.028;2023-02-04T04:48:05;131.77;;;59.20;;
23434;SDS011;11890;45.380;11.028;2023-02-04T04:50:33;136.10;;;60.75;;
23434;SDS011;11890;45.380;11.028;2023-02-04T04:53:01;144.10;;;60.85;;
23434;SDS011;11890;45.380;11.028;2023-02-04T04:55:29;126.22;;;59.35;;
23434;SDS011;11890;45.380;11.028;2023-02-04T04:57:58;144.98;;;60.83;;
23434;SDS011;11890;45.380;11.028;2023-02-04T05:00:26;134.48;;;58.92;;
23434;SDS011;11890;45.380;11.028;2023-02-04T05:02:54;136.60;;;58.08;;
23434;SDS011;11890;45.380;11.028;2023-02-04T05:05:22;133.73;;;57.30;;
23434;SDS011;11890;45.380;11.028;2023-02-04T05:07:49;133.30;;;58.38;;
23434;SDS011;11890;45.380;11.028;2023-02-04T05:10:19;133.65;;;59.70;;
23434;SDS011;11890;45.380;11.028;2023-02-04T05:12:47;141.38;;;60.63;;
23434;SDS011;11890;45.380;11.028;2023-02-04T05:15:15;136.15;;;58.72;;
23434;SDS011;11890;45.380;11.028;2023-02-04T05:17:43;133.98;;;58.97;;
23434;SDS011;11890;45.380;11.028;2023-02-04T05:20:11;130.95;;;59.40;;
23434;SDS011;11890;45.380;11.028;2023-02-04T05:22:39;138.23;;;59.80;;
23434;SDS011;11890;45.380;11.028;2023-02-04T05:25:06;136.63;;;60.75;;
23434;SDS011;11890;45.380;11.028;2023-02-04T05:27:34;137.77;;;57.78;;
23434;SDS011;11890;45.380;11.028;2023-02-04T05:30:02;134.88;;;59.42;;
23434;SDS011;11890;45.380;11.028;2023-02-04T05:32:30;139.77;;;59.05;;
23434;SDS011;11890;45.380;11.028;2023-02-04T05:34:58;135.07;;;59.45;;
23434;SDS011;11890;45.380;11.028;2023-02-04T05:37:29;141.13;;;59.10;;
23434;SDS011;11890;45.380;11.028;2023-02-04T05:39:57;169.95;;;74.15;;
23434;SDS011;11890;45.380;11.028;2023-02-04T05:42:25;137.02;;;59.33;;
23434;SDS011;11890;45.380;11.028;2023-02-04T05:44:53;126.47;;;57.90;;
23434;SDS011;11890;45.380;11.028;2023-02-04T05:47:21;135.02;;;57.13;;
23434;SDS011;11890;45.380;11.028;2023-02-04T05:49:49;132.18;;;56.95;;
23434;SDS011;11890;45.380;11.028;2023-02-04T05:52:16;128.55;;;55.38;;
23434;SDS011;11890;45.380;11.028;2023-02-04T05:54:44;139.25;;;59.65;;
23434;SDS011;11890;45.380;11.028;2023-02-04T05:57:12;136.85;;;59.90;;
23434;SDS011;11890;45.380;11.028;2023-02-04T05:59:40;142.40;;;63.35;;
23434;SDS011;11890;45.380;11.028;2023-02-04T06:02:08;143.07;;;61.08;;
23434;SDS011;11890;45.380;11.028;2023-02-04T06:04:36;139.75;;;60.30;;
23434;SDS011;11890;45.380;11.028;2023-02-04T06:07:04;144.75;;;58.45;;
23434;SDS011;11890;45.380;11.028;2023-02-04T06:09:32;128.60;;;55.90;;
23434;SDS011;11890;45.380;11.028;2023-02-04T06:12:00;126.32;;;55.28;;
23434;SDS011;11890;45.380;11.028;2023-02-04T06:14:27;125.75;;;57.67;;
23434;SDS011;11890;45.380;11.028;2023-02-04T06:16:55;136.35;;;61.78;;
23434;SDS011;11890;45.380;11.028;2023-02-04T06:19:24;135.77;;;61.22;;
23434;SDS011;11890;45.380;11.028;2023-02-04T06:21:51;126.43;;;54.50;;
23434;SDS011;11890;45.380;11.028;2023-02-04T06:24:20;136.05;;;57.50;;
23434;SDS011;11890;45.380;11.028;2023-02-04T06:26:48;127.72;;;56.80;;
23434;SDS011;11890;45.380;11.028;2023-02-04T06:29:16;126.53;;;56.45;;
23434;SDS011;11890;45.380;11.028;2023-02-04T06:31:44;141.32;;;56.95;;
23434;SDS011;11890;45.380;11.028;2023-02-04T06:34:13;142.63;;;60.15;;
23434;SDS011;11890;45.380;11.028;2023-02-04T06:36:41;125.43;;;53.13;;
23434;SDS011;11890;45.380;11.028;2023-02-04T06:39:09;142.77;;;57.67;;
23434;SDS011;11890;45.380;11.028;2023-02-04T06:41:36;169.05;;;75.15;;
23434;SDS011;11890;45.380;11.028;2023-02-04T06:44:04;144.60;;;61.42;;
23434;SDS011;11890;45.380;11.028;2023-02-04T06:46:32;126.93;;;55.70;;
23434;SDS011;11890;45.380;11.028;2023-02-04T06:49:00;125.93;;;56.17;;
23434;SDS011;11890;45.380;11.028;2023-02-04T06:51:28;144.75;;;58.45;;
23434;SDS011;11890;45.380;11.028;2023-02-04T06:53:56;131.77;;;56.30;;
23434;SDS011;11890;45.380;11.028;2023-02-04T06:56:24;148.30;;;61.50;;
23434;SDS011;11890;45.380;11.028;2023-02-04T06:58:55;145.20;;;62.53;;
23434;SDS011;11890;45.380;11.028;2023-02-04T07:01:22;144.27;;;60.60;;
23434;SDS011;11890;45.380;11.028;2023-02-04T07:03:50;145.70;;;63.47;;
23434;SDS011;11890;45.380;11.028;2023-02-04T07:06:18;149.15;;;61.47;;
23434;SDS011;11890;45.380;11.028;2023-02-04T07:08:46;128.98;;;58.13;;
23434;SDS011;11890;45.380;11.028;2023-02-04T07:11:15;129.18;;;56.58;;
23434;SDS011;11890;45.380;11.028;2023-02-04T07:13:43;134.93;;;57.00;;
23434;SDS011;11890;45.380;11.028;2023-02-04T07:16:10;134.95;;;59.40;;
23434;SDS011;11890;45.380;11.028;2023-02-04T07:18:38;117.82;;;54.03;;
23434;SDS011;11890;45.380;11.028;2023-02-04T07:21:06;128.07;;;57.47;;
23434;SDS011;11890;45.380;11.028;2023-02-04T07:23:34;127.88;;;57.13;;
23434;SDS011;11890;45.380;11.028;2023-02-04T07:26:02;134.68;;;55.60;;
23434;SDS011;11890;45.380;11.028;2023-02-04T07:28:30;141.45;;;59.15;;
23434;SDS011;11890;45.380;11.028;2023-02-04T07:30:58;129.63;;;55.90;;
23434;SDS011;11890;45.380;11.028;2023-02-04T07:33:26;139.05;;;59.30;;
23434;SDS011;11890;45.380;11.028;2023-02-04T07:35:54;135.95;;;57.88;;
23434;SDS011;11890;45.380;11.028;2023-02-04T07:38:22;125.22;;;56.35;;
23434;SDS011;11890;45.380;11.028;2023-02-04T07:40:50;126.50;;;57.92;;
23434;SDS011;11890;45.380;11.028;2023-02-04T07:43:18;134.35;;;57.53;;
23434;SDS011;11890;45.380;11.028;2023-02-04T07:45:46;145.93;;;60.78;;
23434;SDS011;11890;45.380;11.028;2023-02-04T07:48:13;133.80;;;61.28;;
23434;SDS011;11890;45.380;11.028;2023-02-04T07:50:41;145.68;;;61.95;;
23434;SDS011;11890;45.380;11.028;2023-02-04T07:53:09;141.50;;;62.53;;
23434;SDS011;11890;45.380;11.028;2023-02-04T07:55:37;147.98;;;65.97;;
23434;SDS011;11890;45.380;11.028;2023-02-04T07:58:05;154.45;;;68.72;;
23434;SDS011;11890;45.380;11.028;2023-02-04T08:00:32;167.63;;;77.38;;
23434;SDS011;11890;45.380;11.028;2023-02-04T08:03:00;203.02;;;92.68;;
23434;SDS011;11890;45.380;11.028;2023-02-04T08:05:28;199.43;;;91.88;;
23434;SDS011;11890;45.380;11.028;2023-02-04T08:07:56;212.20;;;99.47;;
23434;SDS011;11890;45.380;11.028;2023-02-04T08:10:24;206.60;;;94.85;;
23434;SDS011;11890;45.380;11.028;2023-02-04T08:12:52;185.05;;;82.85;;
23434;SDS011;11890;45.380;11.028;2023-02-04T08:15:20;193.15;;;83.47;;
23434;SDS011;11890;45.380;11.028;2023-02-04T08:17:48;175.05;;;78.22;;
23434;SDS011;11890;45.380;11.028;2023-02-04T08:20:16;165.57;;;74.93;;
23434;SDS011;11890;45.380;11.028;2023-02-04T08:22:44;172.30;;;74.70;;
23434;SDS011;11890;45.380;11.028;2023-02-04T08:25:12;165.70;;;74.30;;
23434;SDS011;11890;45.380;11.028;2023-02-04T08:27:39;168.50;;;72.32;;
23434;SDS011;11890;45.380;11.028;2023-02-04T08:30:08;155.77;;;68.32;;
23434;SDS011;11890;45.380;11.028;2023-02-04T08:32:36;164.82;;;70.70;;
23434;SDS011;11890;45.380;11.028;2023-02-04T08:35:05;148.38;;;70.05;;
23434;SDS011;11890;45.380;11.028;2023-02-04T08:37:33;149.23;;;67.55;;
23434;SDS011;11890;45.380;11.028;2023-02-04T08:40:01;146.75;;;66.15;;
23434;SDS011;11890;45.380;11.028;2023-02-04T08:42:29;163.10;;;69.53;;
23434;SDS011;11890;45.380;11.028;2023-02-04T08:44:57;153.55;;;68.35;;
23434;SDS011;11890;45.380;11.028;2023-02-04T08:47:25;157.65;;;70.35;;
23434;SDS011;11890;45.380;11.028;2023-02-04T08:49:53;157.15;;;70.85;;
23434;SDS011;11890;45.380;11.028;2023-02-04T08:52:20;156.68;;;70.38;;
23434;SDS011;11890;45.380;11.028;2023-02-04T08:54:48;168.32;;;74.60;;
23434;SDS011;11890;45.380;11.028;2023-02-04T08:57:16;173.25;;;75.88;;
23434;SDS011;11890;45.380;11.028;2023-02-04T08:59:44;172.35;;;75.25;;
23434;SDS011;11890;45.380;11.028;2023-02-04T09:02:12;170.30;;;75.90;;
23434;SDS011;11890;45.380;11.028;2023-02-04T09:04:40;175.15;;;77.22;;
23434;SDS011;11890;45.380;11.028;2023-02-04T09:07:07;177.75;;;75.72;;
23434;SDS011;11890;45.380;11.028;2023-02-04T09:09:35;171.82;;;76.97;;
23434;SDS011;11890;45.380;11.028;2023-02-04T09:12:03;170.30;;;74.05;;
23434;SDS011;11890;45.380;11.028;2023-02-04T09:14:31;171.50;;;76.95;;
23434;SDS011;11890;45.380;11.028;2023-02-04T09:16:59;171.60;;;77.25;;
23434;SDS011;11890;45.380;11.028;2023-02-04T09:19:27;169.50;;;75.28;;
23434;SDS011;11890;45.380;11.028;2023-02-04T09:21:55;172.45;;;74.65;;
23434;SDS011;11890;45.380;11.028;2023-02-04T09:24:23;178.05;;;76.90;;
23434;SDS011;11890;45.380;11.028;2023-02-04T09:26:51;173.65;;;77.63;;
23434;SDS011;11890;45.380;11.028;2023-02-04T09:29:19;178.65;;;78.85;;
23434;SDS011;11890;45.380;11.028;2023-02-04T09:31:47;173.85;;;78.55;;
23434;SDS011;11890;45.380;11.028;2023-02-04T09:34:15;187.75;;;79.28;;
23434;SDS011;11890;45.380;11.028;2023-02-04T09:36:43;174.88;;;81.22;;
23434;SDS011;11890;45.380;11.028;2023-02-04T09:39:11;172.80;;;77.95;;
23434;SDS011;11890;45.380;11.028;2023-02-04T09:41:39;182.80;;;80.40;;
23434;SDS011;11890;45.380;11.028;2023-02-04T09:44:11;185.80;;;81.72;;
23434;SDS011;11890;45.380;11.028;2023-02-04T09:46:45;175.48;;;79.95;;
23434;SDS011;11890;45.380;11.028;2023-02-04T09:49:13;177.43;;;80.47;;
23434;SDS011;11890;45.380;11.028;2023-02-04T09:51:42;181.15;;;83.63;;
23434;SDS011;11890;45.380;11.028;2023-02-04T09:54:11;196.68;;;84.85;;
23434;SDS011;11890;45.380;11.028;2023-02-04T09:56:40;194.93;;;84.53;;
23434;SDS011;11890;45.380;11.028;2023-02-04T09:59:12;190.02;;;84.30;;
23434;SDS011;11890;45.380;11.028;2023-02-04T10:01:41;190.60;;;87.70;;
23434;SDS011;11890;45.380;11.028;2023-02-04T10:04:11;186.98;;;84.03;;
23434;SDS011;11890;45.380;11.028;2023-02-04T10:06:40;184.13;;;81.93;;
23434;SDS011;11890;45.380;11.028;2023-02-04T10:09:11;181.77;;;85.07;;
23434;SDS011;11890;45.380;11.028;2023-02-04T10:11:41;184.87;;;85.23;;
23434;SDS011;11890;45.380;11.028;2023-02-04T10:14:20;183.77;;;83.55;;
23434;SDS011;11890;45.380;11.028;2023-02-04T10:16:53;185.75;;;84.53;;
23434;SDS011;11890;45.380;11.028;2023-02-04T10:19:24;177.63;;;83.20;;
23434;SDS011;11890;45.380;11.028;2023-02-04T10:21:53;182.80;;;83.05;;
23434;SDS011;11890;45.380;11.028;2023-02-04T10:24:22;173.43;;;80.97;;
23434;SDS011;11890;45.380;11.028;2023-02-04T10:26:54;182.57;;;84.53;;
23434;SDS011;11890;45.380;11.028;2023-02-04T10:29:32;177.18;;;80.10;;
23434;SDS011;11890;45.380;11.028;2023-02-04T10:32:00;169.38;;;81.43;;
23434;SDS011;11890;45.380;11.028;2023-02-04T10:34:38;175.07;;;82.88;;
23434;SDS011;11890;45.380;11.028;2023-02-04T10:37:19;172.05;;;82.80;;
23434;SDS011;11890;45.380;11.028;2023-02-04T10:39:47;167.85;;;81.15;;
23434;SDS011;11890;45.380;11.028;2023-02-04T10:42:22;184.52;;;83.55;;
23434;SDS011;11890;45.380;11.028;2023-02-04T10:44:58;178.30;;;83.88;;
23434;SDS011;11890;45.380;11.028;2023-02-04T10:47:31;175.27;;;83.35;;
23434;SDS011;11890;45.380;11.028;2023-02-04T10:52:35;176.30;;;85.30;;
23434;SDS011;11890;45.380;11.028;2023-02-04T10:55:04;165.43;;;84.63;;
23434;SDS011;11890;45.380;11.028;2023-02-04T10:57:34;159.60;;;80.38;;
23434;SDS011;11890;45.380;11.028;2023-02-04T11:00:04;163.45;;;80.20;;
23434;SDS011;11890;45.380;11.028;2023-02-04T11:05:18;168.18;;;83.30;;
23434;SDS011;11890;45.380;11.028;2023-02-04T11:07:47;162.30;;;79.40;;
23434;SDS011;11890;45.380;11.028;2023-02-04T11:10:27;165.43;;;81.43;;
23434;SDS011;11890;45.380;11.028;2023-02-04T11:18:07;166.50;;;81.47;;
23434;SDS011;11890;45.380;11.028;2023-02-04T11:20:36;167.18;;;81.80;;
23434;SDS011;11890;45.380;11.028;2023-02-04T11:26:06;160.55;;;81.00;;
23434;SDS011;11890;45.380;11.028;2023-02-04T11:31:59;184.00;;;89.07;;
23434;SDS011;11890;45.380;11.028;2023-02-04T11:34:08;220.07;;;109.40;;
23434;SDS011;11890;45.380;11.028;2023-02-04T11:39:39;163.98;;;80.75;;
23434;SDS011;11890;45.380;11.028;2023-02-04T11:42:22;166.80;;;81.05;;
23434;SDS011;11890;45.380;11.028;2023-02-04T11:44:54;161.10;;;79.10;;
23434;SDS011;11890;45.380;11.028;2023-02-04T11:47:25;163.63;;;81.07;;
23434;SDS011;11890;45.380;11.028;2023-02-04T11:49:55;170.75;;;82.18;;
23434;SDS011;11890;45.380;11.028;2023-02-04T11:52:23;162.50;;;81.50;;
23434;SDS011;11890;45.380;11.028;2023-02-04T11:54:58;157.75;;;77.85;;
23434;SDS011;11890;45.380;11.028;2023-02-04T11:57:26;168.77;;;81.22;;
23434;SDS011;11890;45.380;11.028;2023-02-04T11:59:54;165.23;;;81.78;;
23434;SDS011;11890;45.380;11.028;2023-02-04T12:02:23;167.48;;;82.45;;
23434;SDS011;11890;45.380;11.028;2023-02-04T12:04:56;170.38;;;83.22;;
23434;SDS011;11890;45.380;11.028;2023-02-04T12:07:27;167.27;;;85.03;;
23434;SDS011;11890;45.380;11.028;2023-02-04T12:09:56;168.88;;;82.25;;
23434;SDS011;11890;45.380;11.028;2023-02-04T12:12:28;165.85;;;81.72;;
23434;SDS011;11890;45.380;11.028;2023-02-04T12:14:57;171.80;;;81.33;;
23434;SDS011;11890;45.380;11.028;2023-02-04T12:17:25;155.18;;;79.35;;
23434;SDS011;11890;45.380;11.028;2023-02-04T12:19:53;159.90;;;77.40;;
23434;SDS011;11890;45.380;11.028;2023-02-04T12:22:21;159.80;;;78.22;;
23434;SDS011;11890;45.380;11.028;2023-02-04T12:24:49;162.13;;;81.72;;
23434;SDS011;11890;45.380;11.028;2023-02-04T12:27:18;153.45;;;80.25;;
23434;SDS011;11890;45.380;11.028;2023-02-04T12:29:46;161.30;;;81.03;;
23434;SDS011;11890;45.380;11.028;2023-02-04T12:32:14;161.10;;;80.97;;
23434;SDS011;11890;45.380;11.028;2023-02-04T12:34:42;159.43;;;81.18;;
23434;SDS011;11890;45.380;11.028;2023-02-04T12:37:09;161.23;;;79.53;;
23434;SDS011;11890;45.380;11.028;2023-02-04T12:39:37;156.07;;;79.50;;
23434;SDS011;11890;45.380;11.028;2023-02-04T12:42:05;172.88;;;84.20;;
23434;SDS011;11890;45.380;11.028;2023-02-04T12:44:33;155.35;;;81.05;;
23434;SDS011;11890;45.380;11.028;2023-02-04T12:47:01;158.00;;;78.97;;
23434;SDS011;11890;45.380;11.028;2023-02-04T12:49:29;168.57;;;84.97;;
23434;SDS011;11890;45.380;11.028;2023-02-04T12:51:57;190.90;;;98.88;;
23434;SDS011;11890;45.380;11.028;2023-02-04T12:54:28;154.60;;;77.60;;
23434;SDS011;11890;45.380;11.028;2023-02-04T12:56:55;164.68;;;83.32;;
23434;SDS011;11890;45.380;11.028;2023-02-04T12:59:28;171.68;;;83.07;;
23434;SDS011;11890;45.380;11.028;2023-02-04T13:02:00;146.60;;;72.80;;
23434;SDS011;11890;45.380;11.028;2023-02-04T13:04:29;143.57;;;74.32;;
23434;SDS011;11890;45.380;11.028;2023-02-04T13:06:57;136.88;;;71.70;;
23434;SDS011;11890;45.380;11.028;2023-02-04T13:09:24;138.07;;;70.97;;
23434;SDS011;11890;45.380;11.028;2023-02-04T13:11:52;131.32;;;67.07;;
23434;SDS011;11890;45.380;11.028;2023-02-04T13:14:20;133.98;;;69.40;;
23434;SDS011;11890;45.380;11.028;2023-02-04T13:16:48;141.13;;;72.30;;
23434;SDS011;11890;45.380;11.028;2023-02-04T13:19:16;141.70;;;74.45;;
23434;SDS011;11890;45.380;11.028;2023-02-04T13:21:44;139.55;;;73.35;;
23434;SDS011;11890;45.380;11.028;2023-02-04T13:24:12;133.80;;;69.32;;
23434;SDS011;11890;45.380;11.028;2023-02-04T13:26:40;126.22;;;66.35;;
23434;SDS011;11890;45.380;11.028;2023-02-04T13:29:08;137.35;;;71.82;;
23434;SDS011;11890;45.380;11.028;2023-02-04T13:31:36;129.30;;;69.40;;
23434;SDS011;11890;45.380;11.028;2023-02-04T13:34:03;132.10;;;70.57;;
23434;SDS011;11890;45.380;11.028;2023-02-04T13:36:31;136.65;;;72.88;;
23434;SDS011;11890;45.380;11.028;2023-02-04T13:39:00;133.73;;;71.35;;
23434;SDS011;11890;45.380;11.028;2023-02-04T13:41:28;140.23;;;76.22;;
23434;SDS011;11890;45.380;11.028;2023-02-04T13:43:56;138.02;;;71.85;;
23434;SDS011;11890;45.380;11.028;2023-02-04T13:46:24;127.32;;;66.50;;
23434;SDS011;11890;45.380;11.028;2023-02-04T13:48:52;135.80;;;69.65;;
23434;SDS011;11890;45.380;11.028;2023-02-04T13:51:20;136.32;;;69.32;;
23434;SDS011;11890;45.380;11.028;2023-02-04T13:53:48;138.05;;;69.97;;
23434;SDS011;11890;45.380;11.028;2023-02-04T13:56:16;136.50;;;67.60;;
23434;SDS011;11890;45.380;11.028;2023-02-04T13:58:44;126.03;;;67.65;;
23434;SDS011;11890;45.380;11.028;2023-02-04T14:01:12;133.23;;;70.07;;
23434;SDS011;11890;45.380;11.028;2023-02-04T14:03:40;134.00;;;69.43;;
23434;SDS011;11890;45.380;11.028;2023-02-04T14:06:08;143.57;;;68.88;;
23434;SDS011;11890;45.380;11.028;2023-02-04T14:08:36;129.98;;;66.68;;
23434;SDS011;11890;45.380;11.028;2023-02-04T14:11:04;129.93;;;65.28;;
23434;SDS011;11890;45.380;11.028;2023-02-04T14:13:33;136.85;;;68.03;;
23434;SDS011;11890;45.380;11.028;2023-02-04T14:16:00;125.45;;;63.35;;
23434;SDS011;11890;45.380;11.028;2023-02-04T14:18:29;121.03;;;59.28;;
23434;SDS011;11890;45.380;11.028;2023-02-04T14:20:56;122.30;;;56.72;;
23434;SDS011;11890;45.380;11.028;2023-02-04T14:23:24;126.57;;;61.30;;